Time;durP1;ratioP1;P1;durP2;ratioP2;P2;SDS_P1;SDS_P2;PMS_P1;PMS_P2;Temp;Humidity;BMP_temperature;BMP_pressure;BME280_temperature;BME280_humidity;BME280_pressure;Samples;Min_cycle;Max_cycle;Signal;HPM_P1;HPM_P2
2021/12/04 00:02:06;;;;;;;14.27;6.83;;;-0.70;99.90;;;;;;4319200;33;20181;-65
2021/12/04 00:04:38;;;;;;;11.93;6.00;;;-0.70;99.90;;;;;;4307190;33;20189;-65
2021/12/04 00:07:07;;;;;;;17.53;7.07;;;-0.70;99.90;;;;;;4307176;33;20180;-65
2021/12/04 00:09:35;;;;;;;16.83;6.77;;;-0.70;99.90;;;;;;4307774;33;20177;-65
2021/12/04 00:12:05;;;;;;;14.93;6.93;;;-0.80;99.90;;;;;;4306012;33;20215;-65
2021/12/04 00:14:36;;;;;;;12.53;6.13;;;-0.80;99.90;;;;;;4307853;33;20174;-65
2021/12/04 00:17:05;;;;;;;13.90;6.77;;;-0.80;99.90;;;;;;4306768;33;20165;-65
2021/12/04 00:19:33;;;;;;;14.53;7.13;;;-0.80;99.90;;;;;;4319504;33;20172;-67
2021/12/04 00:22:01;;;;;;;14.33;6.57;;;-0.80;99.90;;;;;;4319515;33;20156;-65
2021/12/04 00:24:29;;;;;;;16.33;6.47;;;-0.80;99.90;;;;;;4306003;33;20173;-65
2021/12/04 00:26:59;;;;;;;16.23;7.13;;;-0.80;99.90;;;;;;4307914;33;20234;-65
2021/12/04 00:29:26;;;;;;;15.73;7.07;;;-0.80;99.90;;;;;;4320507;33;20268;-65
2021/12/04 00:32:25;;;;;;;13.83;6.90;;;-0.90;99.90;;;;;;4307095;33;20201;-65
2021/12/04 00:34:46;;;;;;;17.10;6.97;;;-0.90;99.90;;;;;;4307242;33;20214;-65
2021/12/04 00:37:37;;;;;;;15.43;6.80;;;-0.90;99.90;;;;;;4320502;33;20211;-65
2021/12/04 00:51:11;;;;;;;17.70;7.57;;;-0.80;99.90;;;;;;4319952;33;20228;-66
2021/12/04 00:53:38;;;;;;;15.40;7.23;;;-0.80;99.90;;;;;;4318747;33;20198;-65
2021/12/04 00:56:06;;;;;;;16.13;6.87;;;-0.80;99.90;;;;;;4318327;33;20233;-65
2021/12/04 00:58:33;;;;;;;16.13;7.60;;;-0.80;99.90;;;;;;4317896;33;20211;-65
2021/12/04 01:01:00;;;;;;;15.50;7.67;;;-0.80;99.90;;;;;;4319004;33;20201;-65
2021/12/04 01:03:28;;;;;;;15.63;6.90;;;-0.90;99.90;;;;;;4320257;33;20149;-65
2021/12/04 01:05:55;;;;;;;15.93;7.40;;;-0.90;99.90;;;;;;4320558;33;20157;-65
2021/12/04 01:08:23;;;;;;;16.13;7.53;;;-0.90;99.90;;;;;;4318767;33;20170;-65
2021/12/04 01:10:50;;;;;;;15.40;7.50;;;-1.00;99.90;;;;;;4318088;33;20189;-65
2021/12/04 01:13:18;;;;;;;16.97;7.40;;;-1.00;99.90;;;;;;4317698;33;20204;-65
2021/12/04 01:15:45;;;;;;;14.87;6.97;;;-1.00;99.90;;;;;;4320011;33;20177;-65
2021/12/04 01:18:13;;;;;;;16.97;7.73;;;-1.00;99.90;;;;;;4322637;33;20223;-65
2021/12/04 01:20:40;;;;;;;19.83;7.60;;;-1.10;99.90;;;;;;4316869;33;20177;-66
2021/12/04 01:23:07;;;;;;;22.77;8.90;;;-1.10;99.90;;;;;;4312843;33;20205;-66
2021/12/04 01:25:37;;;;;;;18.63;8.07;;;-1.10;99.90;;;;;;4321695;33;20188;-65
2021/12/04 01:28:04;;;;;;;17.80;8.30;;;-1.20;99.90;;;;;;4321171;33;20231;-65
2021/12/04 01:30:32;;;;;;;20.80;8.60;;;-1.20;99.90;;;;;;4320374;33;20196;-65
2021/12/04 01:33:00;;;;;;;18.27;8.03;;;-1.20;99.90;;;;;;4322125;33;20172;-65
2021/12/04 01:35:28;;;;;;;20.93;8.27;;;-1.20;99.90;;;;;;4322008;33;20177;-65
2021/12/04 01:37:56;;;;;;;19.00;8.30;;;-1.20;99.90;;;;;;4320642;33;20232;-65
2021/12/04 01:40:24;;;;;;;19.13;8.67;;;-1.20;99.90;;;;;;4321338;33;20229;-65
2021/12/04 01:42:51;;;;;;;19.57;8.07;;;-1.30;99.90;;;;;;4323099;33;20198;-65
2021/12/04 01:45:21;;;;;;;19.70;8.20;;;-1.30;99.90;;;;;;4320469;33;20580;-65
2021/12/04 01:47:52;;;;;;;18.53;9.07;;;-1.20;99.90;;;;;;4320809;33;20183;-66
2021/12/04 01:50:22;;;;;;;18.10;8.27;;;-1.20;99.90;;;;;;4315876;33;20640;-66
2021/12/04 01:52:50;;;;;;;22.63;9.00;;;-1.20;99.90;;;;;;4311059;33;20201;-65
2021/12/04 01:55:17;;;;;;;19.23;8.67;;;-1.20;99.90;;;;;;4309044;33;20199;-65
2021/12/04 01:57:45;;;;;;;21.20;8.33;;;-1.20;99.90;;;;;;4308233;33;20181;-66
2021/12/04 02:00:16;;;;;;;20.23;9.30;;;-1.20;99.90;;;;;;4309318;33;20515;-65
2021/12/04 02:02:46;;;;;;;21.27;8.83;;;-1.30;99.90;;;;;;4308317;33;20236;-65
2021/12/04 02:05:15;;;;;;;17.43;8.10;;;-1.30;99.90;;;;;;4309749;33;20424;-66
2021/12/04 02:07:42;;;;;;;21.47;9.07;;;-1.30;99.90;;;;;;4309126;33;20200;-65
2021/12/04 02:10:12;;;;;;;21.90;9.07;;;-1.30;99.90;;;;;;4308732;33;20625;-65
2021/12/04 02:12:42;;;;;;;22.87;8.70;;;-1.30;99.90;;;;;;4321016;33;20215;-65
2021/12/04 02:15:17;;;;;;;20.20;9.37;;;-1.40;99.90;;;;;;4321618;33;20197;-65
2021/12/04 02:17:49;;;;;;;22.03;9.37;;;-1.30;99.90;;;;;;4308183;33;20257;-65
2021/12/04 02:20:19;;;;;;;25.73;9.57;;;-1.30;99.90;;;;;;4309034;33;20180;-65
2021/12/04 02:22:47;;;;;;;20.07;9.33;;;-1.30;99.90;;;;;;4307945;33;20172;-65
2021/12/04 02:25:15;;;;;;;21.47;9.70;;;-1.30;99.90;;;;;;4308463;33;20214;-65
2021/12/04 02:27:43;;;;;;;21.83;9.40;;;-1.30;99.90;;;;;;4308364;33;20176;-65
2021/12/04 02:30:15;;;;;;;25.20;10.00;;;-1.40;99.90;;;;;;4320773;33;20177;-65
2021/12/04 02:32:44;;;;;;;25.97;10.60;;;-1.30;99.90;;;;;;4322342;33;20136;-66
2021/12/04 02:35:13;;;;;;;23.27;10.07;;;-1.40;99.90;;;;;;4309446;33;20177;-65
2021/12/04 02:37:40;;;;;;;27.60;11.20;;;-1.40;99.90;;;;;;4308701;33;20177;-66
2021/12/04 02:40:11;;;;;;;25.93;10.70;;;-1.30;99.90;;;;;;4308355;33;20216;-65
2021/12/04 02:42:39;;;;;;;26.90;11.00;;;-1.40;99.90;;;;;;4308813;33;20227;-65
2021/12/04 02:45:10;;;;;;;23.03;10.60;;;-1.40;99.90;;;;;;4307313;33;20245;-66
2021/12/04 02:47:38;;;;;;;26.03;11.57;;;-1.40;99.90;;;;;;4307767;33;20217;-66
2021/12/04 02:50:10;;;;;;;28.03;12.03;;;-1.50;99.90;;;;;;4307805;33;20252;-65
2021/12/04 02:52:38;;;;;;;24.70;11.47;;;-1.50;99.90;;;;;;4308059;33;20246;-65
2021/12/04 02:55:06;;;;;;;28.23;11.77;;;-1.50;99.90;;;;;;4308242;33;20176;-65
2021/12/04 02:57:37;;;;;;;24.30;11.50;;;-1.50;99.90;;;;;;4307360;33;20179;-65
2021/12/04 03:00:05;;;;;;;27.07;11.73;;;-1.50;99.90;;;;;;4307111;33;20173;-66
2021/12/04 03:02:33;;;;;;;26.63;11.13;;;-1.40;99.90;;;;;;4321559;33;20149;-65
2021/12/04 03:05:02;;;;;;;27.80;11.70;;;-1.40;99.90;;;;;;4308918;33;20248;-65
2021/12/04 03:07:30;;;;;;;25.63;11.73;;;-1.50;99.90;;;;;;4306939;33;20248;-65
2021/12/04 03:09:57;;;;;;;25.63;11.43;;;-1.50;99.90;;;;;;4307856;33;20287;-65
2021/12/04 03:12:25;;;;;;;26.33;11.87;;;-1.40;99.90;;;;;;4320346;33;20204;-65
2021/12/04 03:14:53;;;;;;;26.10;12.10;;;-1.40;99.90;;;;;;4307265;33;20532;-65
2021/12/04 03:17:22;;;;;;;27.30;12.70;;;-1.40;99.90;;;;;;4320179;33;20150;-65
2021/12/04 03:19:51;;;;;;;24.83;12.33;;;-1.30;99.90;;;;;;4321129;33;20184;-65
2021/12/04 03:22:21;;;;;;;29.57;12.07;;;-1.40;99.90;;;;;;4319554;33;20212;-65
2021/12/04 03:24:49;;;;;;;27.43;12.03;;;-1.40;99.90;;;;;;4306723;33;20196;-65
2021/12/04 03:27:17;;;;;;;30.10;12.53;;;-1.40;99.90;;;;;;4306619;33;20598;-65
2021/12/04 03:29:50;;;;;;;28.37;11.93;;;-1.30;99.90;;;;;;4306797;33;20181;-66
2021/12/04 03:40:00;;;;;;;31.20;12.17;;;-1.30;99.90;;;;;;4306798;33;20523;-66
2021/12/04 03:41:02;;;;;;;25.83;11.87;;;-1.40;99.90;;;;;;4308022;33;20213;-66
2021/12/04 03:43:30;;;;;;;30.30;12.70;;;-1.30;99.90;;;;;;4307145;33;20197;-66
2021/12/04 03:46:01;;;;;;;30.37;12.20;;;-1.30;99.90;;;;;;4318536;33;20275;-66
2021/12/04 03:51:02;;;;;;;26.20;12.57;;;-1.20;99.90;;;;;;4306133;33;20570;-66
2021/12/04 03:53:29;;;;;;;29.43;12.47;;;-1.20;99.90;;;;;;4306932;33;20180;-66
2021/12/04 03:55:58;;;;;;;26.00;12.07;;;-1.20;99.90;;;;;;4306403;33;20237;-66
2021/12/04 03:58:25;;;;;;;29.73;12.57;;;-1.20;99.90;;;;;;4321422;33;20173;-66
2021/12/04 04:00:53;;;;;;;26.07;12.20;;;-1.10;99.90;;;;;;4307237;33;20177;-66
2021/12/04 04:03:21;;;;;;;31.90;12.43;;;-1.10;99.90;;;;;;4319808;33;20470;-66
2021/12/04 04:05:48;;;;;;;28.33;11.47;;;-1.10;99.90;;;;;;4306793;33;20523;-66
2021/12/04 04:08:16;;;;;;;29.33;12.10;;;-1.20;99.90;;;;;;4320272;33;20137;-66
2021/12/04 04:10:44;;;;;;;27.77;11.17;;;-1.10;99.90;;;;;;4306340;33;20173;-66
2021/12/04 04:13:12;;;;;;;25.53;11.83;;;-1.20;99.90;;;;;;4306611;33;20185;-66
2021/12/04 04:15:40;;;;;;;27.30;11.67;;;-1.20;99.90;;;;;;4319501;33;20146;-66
2021/12/04 04:18:08;;;;;;;26.47;12.20;;;-1.20;99.90;;;;;;4306880;33;20208;-66
2021/12/04 04:20:35;;;;;;;23.47;11.90;;;-1.10;99.90;;;;;;4319709;33;20213;-66
2021/12/04 04:23:03;;;;;;;26.10;12.03;;;-1.10;99.90;;;;;;4319582;33;20461;-66
2021/12/04 04:25:31;;;;;;;25.63;11.57;;;-1.10;99.90;;;;;;4306400;33;20199;-66
2021/12/04 04:27:58;;;;;;;24.37;11.63;;;-1.10;99.90;;;;;;4306252;33;20188;-65
2021/12/04 04:30:26;;;;;;;24.63;11.70;;;-1.20;99.90;;;;;;4319412;33;20216;-65
2021/12/04 04:32:54;;;;;;;30.67;12.03;;;-1.20;99.90;;;;;;4306641;33;20175;-66
2021/12/04 04:35:25;;;;;;;23.13;11.40;;;-1.20;99.90;;;;;;4306616;33;20200;-65
2021/12/04 04:38:20;;;;;;;24.37;10.90;;;-1.20;99.90;;;;;;4305785;33;20437;-66
2021/12/04 05:11:15;;;;;;;23.23;10.47;;;-1.10;99.90;;;;;;4308862;33;20232;-66
2021/12/04 05:13:42;;;;;;;24.60;10.33;;;-1.10;99.90;;;;;;4321265;33;20202;-66
2021/12/04 05:16:17;;;;;;;23.07;9.87;;;-1.00;99.90;;;;;;4308752;33;20249;-66
2021/12/04 05:19:12;;;;;;;19.67;9.60;;;-1.00;99.90;;;;;;4309481;33;20169;-66
2021/12/04 05:21:36;;;;;;;23.70;9.93;;;-1.00;99.90;;;;;;4309375;33;20181;-66
2021/12/04 05:24:04;;;;;;;24.30;10.53;;;-0.90;99.90;;;;;;4308896;33;20240;-66
2021/12/04 05:26:31;;;;;;;22.13;9.53;;;-0.90;99.90;;;;;;4309089;33;20180;-66
2021/12/04 05:28:59;;;;;;;21.33;10.37;;;-0.90;99.90;;;;;;4308739;33;20218;-66
2021/12/04 05:31:28;;;;;;;22.83;9.70;;;-0.90;99.90;;;;;;4322007;33;20168;-66
2021/12/04 05:33:56;;;;;;;20.43;10.20;;;-0.90;99.90;;;;;;4307765;33;20225;-66
2021/12/04 05:36:24;;;;;;;23.57;9.63;;;-0.90;99.90;;;;;;4322222;33;20390;-66
2021/12/04 05:38:57;;;;;;;19.63;9.20;;;-0.80;99.90;;;;;;4308178;33;20172;-66
2021/12/04 05:41:25;;;;;;;17.77;8.93;;;-0.90;99.90;;;;;;4308476;33;20185;-66
2021/12/04 05:43:52;;;;;;;18.97;8.37;;;-0.90;99.90;;;;;;4307342;33;20251;-66
2021/12/04 05:46:25;;;;;;;19.10;8.73;;;-0.80;99.90;;;;;;4307383;33;20184;-66
2021/12/04 05:49:00;;;;;;;16.97;8.47;;;-0.80;99.90;;;;;;4307366;33;20184;-66
2021/12/04 05:57:00;;;;;;;18.00;8.10;;;-0.70;99.90;;;;;;4308182;33;20215;-66
2021/12/04 05:59:28;;;;;;;18.70;7.67;;;-0.70;99.90;;;;;;4306945;33;20177;-66
2021/12/04 06:01:56;;;;;;;17.40;8.17;;;-0.70;99.90;;;;;;4307090;33;20245;-66
2021/12/04 06:04:24;;;;;;;15.93;7.93;;;-0.60;99.90;;;;;;4308714;33;20195;-66
2021/12/04 06:06:57;;;;;;;17.90;8.50;;;-0.70;99.90;;;;;;4307190;33;20238;-66
2021/12/04 06:09:42;;;;;;;17.67;8.03;;;-0.60;99.90;;;;;;4307075;33;20196;-66
2021/12/04 06:12:12;;;;;;;18.13;8.53;;;-0.60;99.90;;;;;;4307074;33;20239;-66
2021/12/04 06:14:45;;;;;;;20.23;8.30;;;-0.60;99.90;;;;;;4307798;33;20268;-66
2021/12/04 06:17:13;;;;;;;16.17;8.00;;;-0.50;99.90;;;;;;4307862;33;20235;-66
2021/12/04 06:22:41;;;;;;;18.43;8.07;;;-0.50;99.90;;;;;;4320515;33;20231;-65
2021/12/04 06:25:14;;;;;;;19.70;8.07;;;-0.50;99.90;;;;;;4320807;33;20513;-68
2021/12/04 06:27:43;;;;;;;17.10;8.13;;;-0.40;99.90;;;;;;4306921;33;20196;-66
2021/12/04 06:30:14;;;;;;;16.87;7.60;;;-0.40;99.90;;;;;;4307993;33;20192;-66
2021/12/04 06:32:42;;;;;;;18.97;7.70;;;-0.30;99.90;;;;;;4309178;33;20173;-66
2021/12/04 06:35:11;;;;;;;13.93;7.03;;;-0.30;99.90;;;;;;4307776;33;20204;-66
2021/12/04 06:37:38;;;;;;;15.20;7.57;;;-0.30;99.90;;;;;;4309327;33;20196;-66
2021/12/04 06:40:08;;;;;;;15.13;7.23;;;-0.30;99.90;;;;;;4321199;33;20229;-66
2021/12/04 06:42:35;;;;;;;17.13;6.90;;;-0.40;99.90;;;;;;4320977;33;20375;-66
2021/12/04 06:45:04;;;;;;;16.50;7.50;;;-0.30;99.90;;;;;;4307301;33;20187;-66
2021/12/04 06:47:36;;;;;;;16.23;7.83;;;-0.30;99.90;;;;;;4307353;33;20211;-66
2021/12/04 06:50:11;;;;;;;15.80;7.53;;;-0.30;99.90;;;;;;4308811;33;20169;-66
2021/12/04 06:52:43;;;;;;;16.53;7.70;;;-0.30;99.90;;;;;;4307078;33;20291;-66
2021/12/04 06:55:11;;;;;;;15.90;7.30;;;-0.30;99.90;;;;;;4307482;33;20210;-66
2021/12/04 06:57:40;;;;;;;14.60;6.63;;;-0.30;99.90;;;;;;4307537;33;20243;-66
2021/12/04 07:00:10;;;;;;;15.77;7.37;;;-0.30;99.90;;;;;;4322075;33;20184;-66
2021/12/04 07:02:38;;;;;;;18.17;7.23;;;-0.20;99.90;;;;;;4320856;33;20165;-66
2021/12/04 07:05:07;;;;;;;16.17;7.03;;;-0.10;99.90;;;;;;4321825;33;20227;-66
2021/12/04 07:07:34;;;;;;;14.03;7.27;;;-0.10;99.90;;;;;;4308468;33;20193;-66
2021/12/04 07:10:03;;;;;;;13.57;7.50;;;0.00;99.90;;;;;;4307845;33;20236;-66
2021/12/04 07:12:31;;;;;;;15.57;7.27;;;0.00;99.90;;;;;;4321123;33;20157;-66
2021/12/04 07:15:00;;;;;;;17.47;7.43;;;0.00;99.90;;;;;;4307267;33;20276;-66
2021/12/04 07:17:27;;;;;;;12.87;7.07;;;0.00;99.90;;;;;;4319826;33;20157;-66
2021/12/04 07:19:55;;;;;;;15.83;7.77;;;0.00;99.90;;;;;;4316576;33;20244;-66
2021/12/04 07:22:22;;;;;;;14.60;6.80;;;0.00;99.90;;;;;;4319856;33;20150;-66
2021/12/04 07:24:50;;;;;;;13.47;6.60;;;0.00;99.90;;;;;;4319970;33;20191;-66
2021/12/04 07:27:18;;;;;;;12.77;6.93;;;0.10;99.90;;;;;;4318504;33;20214;-66
2021/12/04 07:29:46;;;;;;;13.63;6.23;;;0.20;99.90;;;;;;4319887;33;20203;-66
2021/12/04 07:32:17;;;;;;;13.33;6.70;;;0.20;99.90;;;;;;4318823;33;20165;-66
2021/12/04 07:34:44;;;;;;;16.33;6.67;;;0.30;99.90;;;;;;4320750;33;20142;-66
2021/12/04 07:37:12;;;;;;;14.27;7.30;;;0.30;99.90;;;;;;4319110;33;20199;-66
2021/12/04 07:39:41;;;;;;;17.20;7.10;;;0.30;99.90;;;;;;4319515;33;20191;-66
2021/12/04 07:42:11;;;;;;;16.00;7.50;;;0.30;99.90;;;;;;4307834;33;20206;-66
2021/12/04 07:44:39;;;;;;;14.53;7.00;;;0.30;99.90;;;;;;4319128;33;20208;-66
2021/12/04 07:47:06;;;;;;;12.60;6.90;;;0.30;99.90;;;;;;4318659;33;20176;-67
2021/12/04 07:49:37;;;;;;;13.03;7.27;;;0.30;99.90;;;;;;4320190;33;20181;-65
2021/12/04 07:52:09;;;;;;;13.03;7.10;;;0.40;99.90;;;;;;4318756;33;20184;-65
2021/12/04 07:54:37;;;;;;;14.00;7.00;;;0.40;99.90;;;;;;4319060;33;20207;-66
2021/12/04 07:57:07;;;;;;;13.20;6.60;;;0.40;99.90;;;;;;4318694;33;20172;-66
2021/12/04 07:59:39;;;;;;;14.33;6.83;;;0.50;99.90;;;;;;4319240;33;20207;-66
2021/12/04 08:02:07;;;;;;;14.30;7.20;;;0.50;99.90;;;;;;4319091;33;20192;-66
2021/12/04 08:04:35;;;;;;;15.37;6.90;;;0.60;99.90;;;;;;4320729;33;20138;-66
2021/12/04 08:07:08;;;;;;;13.20;6.57;;;0.60;99.90;;;;;;4319902;33;20244;-66
2021/12/04 08:09:42;;;;;;;16.13;7.50;;;0.60;99.90;;;;;;4320440;33;20173;-66
2021/12/04 08:12:10;;;;;;;12.83;6.77;;;0.60;99.90;;;;;;4318855;33;20203;-66
2021/12/04 08:14:38;;;;;;;14.20;6.70;;;0.70;99.90;;;;;;4318656;33;20231;-66
2021/12/04 08:17:06;;;;;;;13.27;7.03;;;0.60;99.90;;;;;;4318391;33;20248;-66
2021/12/04 08:19:36;;;;;;;13.10;6.53;;;0.70;99.90;;;;;;4318987;33;20204;-66
2021/12/04 08:22:04;;;;;;;13.13;6.90;;;0.70;99.90;;;;;;4319248;33;20242;-66
2021/12/04 08:24:31;;;;;;;12.73;6.53;;;0.80;99.90;;;;;;4319764;33;20174;-66
2021/12/04 08:26:59;;;;;;;12.90;6.53;;;0.90;99.90;;;;;;4320178;33;20153;-66
2021/12/04 08:29:27;;;;;;;11.77;6.30;;;1.00;99.90;;;;;;4320667;33;20272;-66
2021/12/04 08:31:54;;;;;;;13.90;7.00;;;1.00;99.90;;;;;;4317917;33;20177;-65
2021/12/04 08:34:24;;;;;;;11.93;6.57;;;1.00;99.90;;;;;;4318230;33;20175;-65
2021/12/04 08:36:54;;;;;;;13.77;7.07;;;1.00;99.90;;;;;;4318658;33;20479;-65
2021/12/04 08:39:25;;;;;;;14.13;6.67;;;1.10;99.90;;;;;;4318312;33;20199;-65
2021/12/04 08:41:52;;;;;;;12.40;6.63;;;1.10;99.90;;;;;;4319022;33;20250;-66
2021/12/04 08:44:20;;;;;;;11.53;6.23;;;1.10;99.90;;;;;;4318378;33;20208;-65
2021/12/04 08:46:47;;;;;;;14.93;6.30;;;1.10;99.90;;;;;;4317803;33;20181;-66
2021/12/04 08:49:15;;;;;;;14.53;6.93;;;1.10;99.90;;;;;;4318199;33;20220;-66
2021/12/04 08:51:43;;;;;;;13.10;7.20;;;1.10;99.90;;;;;;4318069;33;20177;-66
2021/12/04 08:54:12;;;;;;;14.30;7.10;;;1.20;99.90;;;;;;4318028;33;20196;-66
2021/12/04 08:56:39;;;;;;;14.07;6.30;;;1.30;99.90;;;;;;4317552;33;20207;-66
2021/12/04 08:59:07;;;;;;;11.93;6.80;;;1.40;99.90;;;;;;4317581;33;20200;-66
2021/12/04 09:01:38;;;;;;;12.13;6.63;;;1.40;99.90;;;;;;4317930;33;20181;-65
2021/12/04 09:04:14;;;;;;;13.10;6.73;;;1.50;99.90;;;;;;4317402;33;20170;-65
2021/12/04 09:06:41;;;;;;;11.73;6.43;;;1.60;99.90;;;;;;4318583;33;20184;-65
2021/12/04 09:09:12;;;;;;;11.90;6.40;;;1.70;99.90;;;;;;4317996;33;20173;-66
2021/12/04 09:11:43;;;;;;;12.67;6.53;;;1.70;99.90;;;;;;4317656;33;20176;-66
2021/12/04 09:14:20;;;;;;;12.13;6.87;;;1.70;99.90;;;;;;4318950;33;20196;-66
2021/12/04 09:16:52;;;;;;;11.20;6.53;;;1.70;99.90;;;;;;4317375;33;20215;-66
2021/12/04 09:19:22;;;;;;;12.63;6.47;;;1.70;99.90;;;;;;4319156;33;20228;-66
2021/12/04 09:21:51;;;;;;;12.50;6.33;;;1.70;99.90;;;;;;4317185;33;20223;-65
2021/12/04 09:24:24;;;;;;;11.07;6.33;;;1.80;99.90;;;;;;4317997;33;20184;-66
2021/12/04 10:23:08;;;;;;;13.10;6.37;;;1.70;99.90;;;;;;4274186;33;20224;-66
2021/12/04 10:33:56;;;;;;;11.50;5.93;;;1.80;99.90;;;;;;4319870;33;20169;-66
2021/12/04 10:36:26;;;;;;;11.37;6.17;;;1.90;99.90;;;;;;4306464;33;20178;-66
2021/12/04 10:38:54;;;;;;;11.20;6.40;;;2.00;99.90;;;;;;4306919;33;20208;-66
2021/12/04 10:41:30;;;;;;;16.17;7.30;;;2.10;99.90;;;;;;4320315;33;20415;-66
2021/12/04 10:44:22;;;;;;;13.13;6.80;;;2.10;99.90;;;;;;4319966;33;20173;-66
2021/12/04 10:47:25;;;;;;;14.23;6.97;;;2.20;99.90;;;;;;4322175;33;20397;-66
2021/12/04 10:52:57;;;;;;;13.60;6.60;;;2.40;99.90;;;;;;4248392;33;20298;-66
2021/12/04 10:55:39;;;;;;;13.30;6.70;;;2.30;99.90;;;;;;4248438;33;20182;-66
2021/12/04 11:01:30;;;;;;;14.73;6.90;;;2.30;99.90;;;;;;4218975;34;20246;-66
2021/12/04 11:04:10;;;;;;;16.37;6.30;;;2.20;99.90;;;;;;4218113;34;20473;-65
2021/12/04 11:07:15;;;;;;;12.53;6.60;;;2.30;99.90;;;;;;4219654;34;20239;-66
2021/12/04 11:24:34;;;;;;;15.43;6.67;;;2.50;99.90;;;;;;4233459;34;20170;-66
2021/12/04 11:44:00;;;;;;;13.90;7.07;;;2.70;99.90;;;;;;4248467;33;20269;-66
2021/12/04 11:46:45;;;;;;;16.80;7.43;;;2.90;99.90;;;;;;4260969;33;20151;-66
2021/12/04 11:49:21;;;;;;;14.00;6.77;;;2.90;99.90;;;;;;4240016;33;20233;-66
2021/12/04 11:52:14;;;;;;;13.37;6.77;;;3.00;99.90;;;;;;4234474;33;20545;-66
2021/12/04 11:54:56;;;;;;;12.17;6.83;;;3.10;99.90;;;;;;4247757;33;20258;-65
2021/12/04 11:57:33;;;;;;;11.37;6.50;;;2.90;99.90;;;;;;4248145;33;20473;-66
2021/12/04 12:00:18;;;;;;;13.37;6.53;;;3.00;99.90;;;;;;4248158;33;20230;-66
2021/12/04 12:02:45;;;;;;;13.27;7.00;;;3.00;99.90;;;;;;4248398;33;20171;-65
2021/12/04 12:05:21;;;;;;;13.17;6.53;;;3.00;99.90;;;;;;4249794;33;20204;-65
2021/12/04 12:07:54;;;;;;;12.70;6.90;;;3.00;99.90;;;;;;4260592;33;20208;-66
2021/12/04 12:10:26;;;;;;;12.40;6.77;;;2.90;99.90;;;;;;4307181;33;20196;-66
2021/12/04 12:13:04;;;;;;;12.80;6.97;;;2.80;99.90;;;;;;4319831;33;20138;-65
2021/12/04 12:15:36;;;;;;;13.03;6.77;;;2.70;99.90;;;;;;4307969;33;20231;-66
2021/12/04 12:18:19;;;;;;;15.57;7.20;;;2.80;99.90;;;;;;4307372;33;20200;-66
2021/12/04 12:20:52;;;;;;;14.30;7.33;;;2.80;99.90;;;;;;4306517;33;20207;-66
2021/12/04 12:23:24;;;;;;;15.13;6.80;;;2.90;99.90;;;;;;4307180;33;20197;-66
2021/12/04 12:31:50;;;;;;;13.37;6.93;;;2.80;99.90;;;;;;4305789;33;20212;-66
2021/12/04 12:37:25;;;;;;;17.67;7.10;;;2.60;99.90;;;;;;4305958;33;20512;-66
2021/12/04 12:40:00;;;;;;;11.93;6.47;;;2.60;99.90;;;;;;4306641;33;20174;-66
2021/12/04 12:42:39;;;;;;;13.87;7.10;;;2.60;99.90;;;;;;4305692;33;20199;-66
2021/12/04 12:45:18;;;;;;;14.93;7.20;;;2.50;99.90;;;;;;4319231;33;20142;-66
2021/12/04 12:48:08;;;;;;;15.30;7.63;;;2.50;99.90;;;;;;4306064;33;20527;-66
2021/12/04 12:50:46;;;;;;;15.37;7.50;;;2.60;99.90;;;;;;4306091;33;20563;-66
2021/12/04 12:53:25;;;;;;;16.10;7.33;;;2.50;99.90;;;;;;4306735;33;20185;-66
2021/12/04 12:56:08;;;;;;;15.47;7.63;;;2.50;99.90;;;;;;4312024;33;20419;-65
2021/12/04 12:58:43;;;;;;;15.13;7.73;;;2.40;99.90;;;;;;4317551;33;20177;-65
2021/12/04 13:12:50;;;;;;;15.60;7.70;;;2.30;99.90;;;;;;4322007;33;20208;-65
2021/12/04 13:15:32;;;;;;;15.90;8.00;;;2.30;99.90;;;;;;4316495;33;20222;-66
2021/12/04 13:18:23;;;;;;;15.63;7.87;;;2.40;99.90;;;;;;4323141;33;20405;-65
2021/12/04 13:20:52;;;;;;;17.20;7.83;;;2.30;99.90;;;;;;4321441;33;20172;-65
2021/12/04 13:23:22;;;;;;;15.43;7.83;;;2.30;99.90;;;;;;4321844;33;20236;-66
2021/12/04 13:25:59;;;;;;;15.73;7.77;;;2.20;99.90;;;;;;4322277;33;20392;-65
2021/12/04 13:28:30;;;;;;;14.07;7.63;;;2.10;99.90;;;;;;4320064;33;20165;-65
2021/12/04 13:31:00;;;;;;;16.13;8.23;;;2.00;99.90;;;;;;4295137;33;20241;-65
2021/12/04 13:33:30;;;;;;;14.87;7.60;;;1.90;99.90;;;;;;4295192;33;20232;-66
2021/12/04 13:35:57;;;;;;;14.23;7.60;;;1.80;99.90;;;;;;4295436;33;20182;-67
2021/12/04 13:38:27;;;;;;;17.73;8.20;;;1.70;99.90;;;;;;4294225;33;20182;-66
2021/12/04 13:40:55;;;;;;;15.17;7.60;;;1.70;99.90;;;;;;4295679;33;20175;-65
2021/12/04 13:43:23;;;;;;;16.07;7.73;;;1.60;99.90;;;;;;4307647;33;20187;-65
2021/12/04 13:46:03;;;;;;;18.43;8.30;;;1.50;99.90;;;;;;4294367;33;20213;-65
2021/12/04 13:48:32;;;;;;;14.90;8.33;;;1.50;99.90;;;;;;4293755;33;20208;-66
2021/12/04 13:51:00;;;;;;;15.97;7.87;;;1.40;99.90;;;;;;4308068;33;20460;-66
2021/12/04 13:53:34;;;;;;;16.53;8.27;;;1.40;99.90;;;;;;4293951;33;20182;-66
2021/12/04 13:56:12;;;;;;;17.77;8.07;;;1.40;99.90;;;;;;4294758;33;20489;-66
2021/12/04 13:58:52;;;;;;;14.83;7.80;;;1.40;99.90;;;;;;4316488;33;20217;-66
2021/12/04 14:01:20;;;;;;;16.20;8.20;;;1.40;99.90;;;;;;4309125;33;20528;-66
2021/12/04 14:03:48;;;;;;;16.47;8.57;;;1.30;99.90;;;;;;4321311;33;20400;-66
2021/12/04 14:06:18;;;;;;;20.60;9.40;;;1.30;99.90;;;;;;4308629;33;20231;-66
2021/12/04 14:08:58;;;;;;;15.83;8.93;;;1.30;99.90;;;;;;4308546;33;20173;-66
2021/12/04 14:11:39;;;;;;;18.60;9.13;;;1.30;99.90;;;;;;4309335;33;20200;-66
2021/12/04 14:14:21;;;;;;;17.63;9.13;;;1.30;99.90;;;;;;4308172;33;20472;-66
2021/12/04 14:16:51;;;;;;;19.17;9.17;;;1.30;99.90;;;;;;4308412;33;20187;-66
2021/12/04 14:19:26;;;;;;;18.20;10.10;;;1.20;99.90;;;;;;4307234;33;20449;-67
2021/12/04 14:22:01;;;;;;;19.03;9.47;;;1.30;99.90;;;;;;4308703;33;20419;-66
2021/12/04 14:24:34;;;;;;;18.50;9.63;;;1.20;99.90;;;;;;4320823;33;20145;-66
2021/12/04 14:27:03;;;;;;;18.17;9.33;;;1.20;99.90;;;;;;4322271;33;20149;-66
2021/12/04 14:29:36;;;;;;;17.37;8.90;;;1.10;99.90;;;;;;4319913;33;20262;-66
2021/12/04 14:32:04;;;;;;;16.73;9.23;;;1.00;99.90;;;;;;4305220;33;20177;-65
2021/12/04 14:34:33;;;;;;;19.17;10.07;;;1.00;99.90;;;;;;4321116;33;20201;-67
2021/12/04 14:37:15;;;;;;;21.90;10.20;;;1.10;99.90;;;;;;4307415;33;20223;-65
2021/12/04 14:39:50;;;;;;;18.27;9.93;;;1.00;99.90;;;;;;4293555;33;20532;-66
2021/12/04 14:42:37;;;;;;;20.20;10.13;;;1.00;99.90;;;;;;4306795;33;20165;-66
2021/12/04 14:45:21;;;;;;;18.57;9.63;;;1.00;99.90;;;;;;4308404;33;20181;-66
2021/12/04 14:47:54;;;;;;;19.57;10.57;;;1.00;99.90;;;;;;4307693;33;20247;-66
2021/12/04 14:50:23;;;;;;;21.60;10.83;;;1.00;99.90;;;;;;4320085;33;20200;-66
2021/12/04 14:52:57;;;;;;;21.33;11.00;;;1.00;99.90;;;;;;4307544;33;20232;-66
2021/12/04 14:55:33;;;;;;;21.00;11.10;;;1.00;99.90;;;;;;4307391;33;20552;-66
2021/12/04 14:58:05;;;;;;;20.10;10.63;;;1.00;99.90;;;;;;4319845;33;20423;-66
2021/12/04 15:00:36;;;;;;;20.17;10.70;;;1.00;99.90;;;;;;4306902;33;20199;-65
2021/12/04 15:03:08;;;;;;;21.20;10.80;;;1.00;99.90;;;;;;4306883;33;20203;-66
2021/12/04 15:05:43;;;;;;;23.57;11.20;;;1.00;99.90;;;;;;4307795;33;20177;-66
2021/12/04 15:08:17;;;;;;;21.90;11.03;;;0.90;99.90;;;;;;4306740;33;20212;-66
2021/12/04 15:10:48;;;;;;;21.57;11.57;;;1.00;99.90;;;;;;4322214;33;20422;-65
2021/12/04 15:13:20;;;;;;;22.97;10.93;;;1.00;99.90;;;;;;4320619;33;20373;-66
2021/12/04 15:15:48;;;;;;;21.83;11.40;;;1.00;99.90;;;;;;4320174;33;20181;-66
2021/12/04 15:18:16;;;;;;;23.70;11.80;;;1.00;99.90;;;;;;4320204;33;20149;-66
2021/12/04 15:20:59;;;;;;;21.07;12.03;;;1.00;99.90;;;;;;4320759;33;20154;-66
2021/12/04 15:23:29;;;;;;;22.47;11.67;;;1.10;99.90;;;;;;4319644;33;20177;-66
2021/12/04 15:26:11;;;;;;;24.43;12.53;;;1.10;99.90;;;;;;4320580;33;20551;-66
2021/12/04 15:28:46;;;;;;;24.70;12.53;;;1.10;99.90;;;;;;4318621;33;20535;-65
2021/12/04 15:31:13;;;;;;;23.37;12.43;;;1.10;99.90;;;;;;4319323;33;20477;-66
2021/12/04 15:33:44;;;;;;;27.00;12.97;;;1.10;99.90;;;;;;4320136;33;20208;-66
2021/12/04 15:36:30;;;;;;;28.40;13.57;;;1.10;99.90;;;;;;4320142;33;20277;-66
2021/12/04 15:38:59;;;;;;;24.53;12.90;;;1.00;99.90;;;;;;4319643;33;20176;-66
2021/12/04 15:42:08;;;;;;;27.10;13.67;;;1.00;99.90;;;;;;4319465;33;20192;-66
2021/12/04 15:50:19;;;;;;;26.90;13.63;;;0.90;99.90;;;;;;4319280;33;20519;-66
2021/12/04 15:55:37;;;;;;;26.60;13.33;;;0.90;99.90;;;;;;4318412;33;20197;-66
2021/12/04 15:58:14;;;;;;;22.60;12.50;;;0.90;99.90;;;;;;4318616;33;20184;-66
2021/12/04 16:00:52;;;;;;;23.47;12.60;;;0.90;99.90;;;;;;4319213;33;20527;-66
2021/12/04 16:03:26;;;;;;;26.33;12.53;;;0.80;99.90;;;;;;4318491;33;20590;-66
2021/12/04 16:05:57;;;;;;;25.00;12.50;;;0.70;99.90;;;;;;4319568;33;20595;-66
2021/12/04 16:08:27;;;;;;;23.77;12.30;;;0.70;99.90;;;;;;4318572;33;20223;-66
2021/12/04 16:11:14;;;;;;;21.93;12.20;;;0.80;99.90;;;;;;4320653;33;20149;-66